createdAt,value
2022-11-28T00:01:22.672Z,100713.00
2022-11-28T00:03:50.302Z,100710.50
2022-11-28T00:06:17.994Z,100710.81
2022-11-28T00:08:45.467Z,100716.50
2022-11-28T00:11:13.999Z,100714.97
2022-11-28T00:13:41.458Z,100718.34
2022-11-28T00:16:09.399Z,100723.62
2022-11-28T00:18:37.018Z,100720.97
2022-11-28T00:21:06.223Z,100717.63
2022-11-28T00:23:33.739Z,100713.16
2022-11-28T00:26:11.385Z,100723.09
2022-11-28T00:28:38.745Z,100718.44
2022-11-28T00:31:06.521Z,100718.31
2022-11-28T00:33:33.950Z,100721.97
2022-11-28T00:36:02.158Z,100717.75
2022-11-28T00:38:29.749Z,100709.66
2022-11-28T00:41:07.023Z,100719.81
2022-11-28T00:43:34.657Z,100719.00
2022-11-28T00:46:02.752Z,100717.63
2022-11-28T00:48:30.157Z,100715.81
2022-11-28T00:51:05.519Z,100719.13
2022-11-28T00:53:32.839Z,100720.53
2022-11-28T00:56:00.430Z,100726.25
2022-11-28T00:58:27.745Z,100735.03
2022-11-28T01:00:55.146Z,100727.50
2022-11-28T01:03:22.782Z,100724.06
2022-11-28T01:05:50.105Z,100723.06
2022-11-28T01:08:17.447Z,100729.75
2022-11-28T01:10:45.307Z,100722.09
2022-11-28T01:13:12.634Z,100718.59
2022-11-28T01:15:40.919Z,100720.69
2022-11-28T01:18:08.849Z,100710.50
2022-11-28T01:20:36.179Z,100709.69
2022-11-28T01:23:03.545Z,100709.62
2022-11-28T01:25:31.172Z,100710.44
2022-11-28T01:27:58.487Z,100711.94
2022-11-28T01:30:25.809Z,100706.44
2022-11-28T01:32:53.438Z,100707.56
2022-11-28T01:35:20.771Z,100708.13
2022-11-28T01:37:48.106Z,100708.81
2022-11-28T01:40:15.663Z,100702.84
2022-11-28T01:42:42.988Z,100698.34
2022-11-28T01:45:24.151Z,100693.19
2022-11-28T01:47:52.120Z,100683.31
2022-11-28T01:50:19.731Z,100680.50
2022-11-28T01:52:48.232Z,100680.63
2022-11-28T01:55:15.830Z,100678.53
2022-11-28T01:57:43.156Z,100679.38
2022-11-28T02:00:16.958Z,100675.06
2022-11-28T02:02:47.909Z,100665.97
2022-11-28T02:05:16.360Z,100668.63
2022-11-28T02:07:44.175Z,100660.69
2022-11-28T02:10:13.967Z,100656.50
2022-11-28T02:13:09.047Z,100657.22
2022-11-28T02:15:39.169Z,100653.84
2022-11-28T02:18:29.065Z,100655.53
2022-11-28T02:21:55.016Z,100660.50
2022-11-28T02:24:57.787Z,100659.12
2022-11-28T02:27:38.787Z,100656.06
2022-11-28T02:30:12.995Z,100658.59
2022-11-28T02:32:53.033Z,100652.28
2022-11-28T02:35:44.903Z,100649.22
2022-11-28T02:38:30.703Z,100651.19
2022-11-28T02:41:06.987Z,100649.50
2022-11-28T02:43:52.395Z,100655.75
2022-11-28T02:46:27.638Z,100647.69
2022-11-28T02:49:14.651Z,100649.03
2022-11-28T02:51:44.743Z,100641.84
2022-11-28T02:54:13.042Z,100641.53
2022-11-28T02:56:50.014Z,100641.22
2022-11-28T02:59:36.506Z,100638.44
2022-11-28T03:02:28.852Z,100635.25
2022-11-28T03:05:17.927Z,100642.75
2022-11-28T03:08:04.176Z,100634.25
2022-11-28T03:10:45.083Z,100628.81
2022-11-28T03:13:32.078Z,100632.44
2022-11-28T03:16:23.183Z,100633.63
2022-11-28T03:19:02.945Z,100626.31
2022-11-28T03:21:33.752Z,100618.38
2022-11-28T03:24:02.963Z,100623.66
2022-11-28T03:26:45.337Z,100618.94
2022-11-28T03:29:16.387Z,100610.44
2022-11-28T03:31:47.939Z,100615.88
2022-11-28T03:34:16.636Z,100604.44
2022-11-28T03:37:07.226Z,100599.56
2022-11-28T03:39:37.124Z,100598.31
2022-11-28T03:42:10.603Z,100586.75
2022-11-28T03:45:00.880Z,100586.19
2022-11-28T03:47:31.401Z,100576.81
2022-11-28T03:50:01.702Z,100576.16
2022-11-28T03:52:32.448Z,100578.09
2022-11-28T03:55:02.222Z,100568.47
2022-11-28T03:57:35.534Z,100575.72
2022-11-28T04:00:08.141Z,100570.13
2022-11-28T04:02:46.652Z,100559.69
2022-11-28T04:05:46.635Z,100560.66
2022-11-28T04:08:18.087Z,100563.44
2022-11-28T04:10:57.057Z,100554.66
2022-11-28T04:13:43.857Z,100552.03
2022-11-28T04:16:21.853Z,100557.06
2022-11-28T04:19:06.554Z,100555.78
2022-11-28T04:22:21.905Z,100552.72
2022-11-28T04:24:52.157Z,100545.87
2022-11-28T04:27:24.239Z,100545.63
2022-11-28T04:29:53.967Z,100552.16
2022-11-28T04:32:21.769Z,100552.97
2022-11-28T04:34:52.431Z,100552.56
2022-11-28T04:37:19.779Z,100550.62
2022-11-28T04:39:48.087Z,100551.59
2022-11-28T04:42:17.823Z,100555.66
2022-11-28T04:44:54.665Z,100558.03
2022-11-28T04:47:22.770Z,100550.91
2022-11-28T04:49:50.206Z,100552.03
2022-11-28T04:52:24.891Z,100545.19
2022-11-28T04:55:10.299Z,100545.56
2022-11-28T04:57:39.328Z,100547.25
2022-11-28T05:00:13.071Z,100539.19
2022-11-28T05:02:40.988Z,100540.59
2022-11-28T05:05:10.147Z,100548.75
2022-11-28T05:07:37.528Z,100541.28
2022-11-28T05:10:06.099Z,100542.00
2022-11-28T05:12:33.697Z,100543.50
2022-11-28T05:15:01.004Z,100543.50
2022-11-28T05:17:28.350Z,100548.25
2022-11-28T05:19:55.970Z,100543.59
2022-11-28T05:22:23.341Z,100545.59
2022-11-28T05:24:50.727Z,100552.81
2022-11-28T05:27:18.319Z,100549.78
2022-11-28T05:29:51.971Z,100550.62
2022-11-28T05:32:20.207Z,100556.50
2022-11-28T05:34:47.599Z,100559.13
2022-11-28T05:37:14.944Z,100567.09
2022-11-28T05:39:42.803Z,100572.94
2022-11-28T05:42:10.299Z,100575.97
2022-11-28T05:44:37.659Z,100572.59
2022-11-28T05:47:05.290Z,100579.31
2022-11-28T05:49:32.596Z,100579.69
2022-11-28T05:52:00.094Z,100576.09
2022-11-28T05:54:27.713Z,100571.66
2022-11-28T05:56:55.057Z,100570.56
2022-11-28T05:59:22.412Z,100572.06
2022-11-28T06:01:50.011Z,100575.38
2022-11-28T06:04:17.672Z,100574.88
2022-11-28T06:06:45.204Z,100574.31
2022-11-28T06:09:12.698Z,100576.00
2022-11-28T06:11:40.370Z,100576.00
2022-11-28T06:14:07.685Z,100582.44
2022-11-28T06:16:35.042Z,100580.22
2022-11-28T06:19:03.825Z,100577.53
2022-11-28T06:21:31.606Z,100584.09
2022-11-28T06:23:59.305Z,100575.03
2022-11-28T06:26:27.412Z,100580.03
2022-11-28T06:28:58.258Z,100581.84
2022-11-28T06:31:30.355Z,100573.91
2022-11-28T06:33:58.350Z,100573.06
2022-11-28T06:36:26.418Z,100571.25
2022-11-28T06:38:54.282Z,100575.50
2022-11-28T06:41:24.519Z,100573.50
2022-11-28T06:43:51.871Z,100584.09
2022-11-28T06:46:20.497Z,100580.63
2022-11-28T06:48:49.085Z,100580.59
2022-11-28T06:51:16.501Z,100580.72
2022-11-28T06:53:43.837Z,100581.28
2022-11-28T06:56:14.116Z,100581.84
2022-11-28T06:58:41.794Z,100584.31
2022-11-28T07:01:14.211Z,100582.34
2022-11-28T07:03:41.968Z,100576.44
2022-11-28T07:06:09.538Z,100580.47
2022-11-28T07:08:37.044Z,100580.47
2022-11-28T07:11:16.422Z,100577.38
2022-11-28T07:13:45.892Z,100578.94
2022-11-28T07:16:17.971Z,100578.78
2022-11-28T07:18:45.360Z,100581.56
2022-11-28T07:21:14.629Z,100579.06
2022-11-28T07:23:42.743Z,100581.97
2022-11-28T07:26:10.513Z,100576.78
2022-11-28T07:28:38.107Z,100584.75
2022-11-28T07:31:27.848Z,100584.91
2022-11-28T07:33:55.468Z,100583.06
2022-11-28T07:36:26.896Z,100587.53
2022-11-28T07:38:55.884Z,100576.56
2022-11-28T07:41:26.521Z,100580.75
2022-11-28T07:43:56.165Z,100570.09
2022-11-28T07:46:24.075Z,100574.03
2022-11-28T07:48:51.610Z,100564.50
2022-11-28T07:51:23.394Z,100558.13
2022-11-28T07:53:51.088Z,100561.50
2022-11-28T07:56:20.541Z,100559.37
2022-11-28T07:58:47.960Z,100549.69
2022-11-28T08:01:17.195Z,100553.94
2022-11-28T08:03:44.858Z,100554.75
2022-11-28T08:06:14.272Z,100554.75
2022-11-28T08:08:41.684Z,100560.62
2022-11-28T08:11:09.491Z,100560.38
2022-11-28T08:13:37.385Z,100557.88
2022-11-28T08:16:06.673Z,100573.19
2022-11-28T08:18:35.125Z,100574.34
2022-11-28T08:21:07.026Z,100568.72
2022-11-28T08:23:34.732Z,100570.16
2022-11-28T08:26:02.870Z,100573.06
2022-11-28T08:28:30.314Z,100576.56
2022-11-28T08:30:59.466Z,100578.22
2022-11-28T08:33:26.956Z,100575.47
2022-11-28T08:35:54.264Z,100576.56
2022-11-28T08:38:21.914Z,100577.81
2022-11-28T08:40:49.286Z,100582.84
2022-11-28T08:43:16.770Z,100585.34
2022-11-28T08:45:44.426Z,100582.97
2022-11-28T08:48:11.806Z,100575.31
2022-11-28T08:50:45.031Z,100577.09
2022-11-28T08:53:18.521Z,100584.38
2022-11-28T08:55:46.144Z,100581.88
2022-11-28T08:58:13.947Z,100580.75
2022-11-28T09:00:42.601Z,100579.22
2022-11-28T09:03:19.348Z,100580.19
2022-11-28T09:05:47.209Z,100570.13
2022-11-28T09:08:15.718Z,100569.56
2022-11-28T09:10:43.798Z,100563.13
2022-11-28T09:13:11.655Z,100567.22
2022-11-28T09:15:42.520Z,100563.94
2022-11-28T09:18:09.988Z,100561.12
2022-11-28T09:20:37.629Z,100568.63
2022-11-28T09:23:05.437Z,100556.72
2022-11-28T09:25:35.335Z,100555.78
2022-11-28T09:28:02.920Z,100556.81
2022-11-28T09:30:30.349Z,100554.22
2022-11-28T09:32:57.698Z,100552.56
2022-11-28T09:35:25.310Z,100553.91
2022-11-28T09:37:52.687Z,100557.03
2022-11-28T09:40:40.452Z,100548.13
2022-11-28T09:43:38.431Z,100552.41
2022-11-28T09:46:07.444Z,100544.44
2022-11-28T09:48:51.044Z,100536.50
2022-11-28T09:51:31.726Z,100532.19
2022-11-28T09:54:14.016Z,100530.22
2022-11-28T09:56:41.427Z,100522.59
2022-11-28T09:59:21.159Z,100521.47
2022-11-28T10:02:02.862Z,100533.13
2022-11-28T10:04:56.744Z,100531.97
2022-11-28T10:07:39.981Z,100516.62
2022-11-28T10:10:29.547Z,100532.25
2022-11-28T10:13:11.653Z,100507.81
2022-11-28T10:15:59.855Z,100518.66
2022-11-28T10:18:39.274Z,100511.59
2022-11-28T10:21:29.976Z,100507.06
2022-11-28T10:23:59.359Z,100513.25
2022-11-28T10:26:32.229Z,100509.19
2022-11-28T10:29:00.264Z,100513.81
2022-11-28T10:31:36.574Z,100503.06
2022-11-28T10:34:21.160Z,100509.47
2022-11-28T10:37:01.214Z,100494.81
2022-11-28T10:39:28.612Z,100495.97
2022-11-28T10:42:12.082Z,100488.13
2022-11-28T10:45:05.163Z,100495.41
2022-11-28T10:47:51.138Z,100487.47
2022-11-28T10:50:35.287Z,100483.88
2022-11-28T10:53:25.741Z,100480.22
2022-11-28T10:56:06.149Z,100474.03
2022-11-28T10:58:50.306Z,100475.28
2022-11-28T11:01:17.686Z,100467.34
2022-11-28T11:03:45.321Z,100466.66
2022-11-28T11:06:13.059Z,100461.38
2022-11-28T11:08:40.846Z,100467.97
2022-11-28T11:11:30.356Z,100454.81
2022-11-28T11:14:10.599Z,100454.84
2022-11-28T11:16:47.538Z,100460.84
2022-11-28T11:19:30.711Z,100459.84
2022-11-28T11:22:21.893Z,100452.75
2022-11-28T11:25:15.349Z,100457.69
2022-11-28T11:27:59.870Z,100453.50
2022-11-28T11:30:38.825Z,100450.19
2022-11-28T11:33:07.218Z,100451.91
2022-11-28T11:35:35.837Z,100452.28
2022-11-28T11:38:21.317Z,100445.31
2022-11-28T11:40:49.645Z,100455.25
2022-11-28T11:43:23.029Z,100445.62
2022-11-28T11:46:04.660Z,100446.28
2022-11-28T11:48:39.880Z,100452.06
2022-11-28T11:51:20.646Z,100449.63
2022-11-28T11:53:47.985Z,100450.78
2022-11-28T11:56:15.577Z,100440.28
2022-11-28T11:58:51.289Z,100443.13
2022-11-28T12:01:19.018Z,100447.84
2022-11-28T12:03:53.538Z,100449.34
2022-11-28T12:06:23.606Z,100457.37
2022-11-28T12:08:58.112Z,100442.62
2022-11-28T12:11:27.642Z,100441.72
2022-11-28T12:13:55.778Z,100438.72
2022-11-28T12:16:32.120Z,100433.53
2022-11-28T12:19:18.243Z,100431.84
2022-11-28T12:22:12.119Z,100425.97
2022-11-28T12:24:52.949Z,100417.19
2022-11-28T12:27:31.960Z,100422.81
2022-11-28T12:30:19.328Z,100414.25
2022-11-28T12:33:08.451Z,100411.91
2022-11-28T12:35:40.975Z,100412.75
2022-11-28T12:38:26.676Z,100420.84
2022-11-28T12:41:32.571Z,100410.09
2022-11-28T12:44:18.863Z,100408.44
2022-11-28T12:47:08.133Z,100415.94
2022-11-28T12:50:11.703Z,100406.44
2022-11-28T12:52:49.396Z,100402.19
2022-11-28T12:55:16.765Z,100406.06
2022-11-28T12:57:49.278Z,100405.34
2022-11-28T13:00:19.997Z,100406.41
2022-11-28T13:03:08.616Z,100398.78
2022-11-28T13:05:44.169Z,100400.34
2022-11-28T13:08:49.374Z,100394.28
2022-11-28T13:11:35.301Z,100391.41
2022-11-28T13:14:31.550Z,100390.72
2022-11-28T13:17:07.395Z,100392.53
2022-11-28T13:19:48.945Z,100390.28
2022-11-28T13:22:24.176Z,100387.13
2022-11-28T13:25:27.323Z,100387.50
2022-11-28T13:27:57.694Z,100385.25
2022-11-28T13:30:26.516Z,100388.38
2022-11-28T13:32:59.971Z,100395.34
2022-11-28T13:35:27.867Z,100392.00
2022-11-28T13:41:18.095Z,100388.91
2022-11-28T13:44:07.984Z,100383.47
2022-11-28T13:46:35.694Z,100383.03
2022-11-28T13:49:15.247Z,100378.16
2022-11-28T13:51:43.259Z,100381.94
2022-11-28T13:54:22.854Z,100374.72
2022-11-28T13:57:12.488Z,100377.78
2022-11-28T13:59:39.893Z,100374.59
2022-11-28T14:02:32.589Z,100379.44
2022-11-28T14:05:00.404Z,100372.34
2022-11-28T14:07:32.148Z,100367.09
2022-11-28T14:10:24.215Z,100373.44
2022-11-28T14:13:29.732Z,100372.00
2022-11-28T14:16:11.416Z,100369.28
2022-11-28T14:19:09.663Z,100369.44
2022-11-28T14:21:49.498Z,100376.06
2022-11-28T14:24:41.347Z,100365.22
2022-11-28T14:27:15.785Z,100372.78
2022-11-28T14:29:43.208Z,100369.81
2022-11-28T14:32:40.631Z,100368.59
2022-11-28T14:35:37.996Z,100369.97
2022-11-28T14:38:31.304Z,100363.44
2022-11-28T14:41:00.210Z,100358.84
2022-11-28T14:43:32.642Z,100362.72
2022-11-28T14:46:16.061Z,100365.84
2022-11-28T14:48:58.940Z,100373.88
2022-11-28T14:51:48.298Z,100366.91
2022-11-28T14:54:57.348Z,100360.62
2022-11-28T14:57:38.081Z,100359.37
2022-11-28T15:00:08.137Z,100358.56
2022-11-28T15:02:48.734Z,100366.06
2022-11-28T15:05:34.982Z,100368.69
2022-11-28T15:08:14.944Z,100371.78
2022-11-28T15:11:13.664Z,100367.75
2022-11-28T15:13:50.561Z,100367.06
2022-11-28T15:16:18.962Z,100370.25
2022-11-28T15:18:49.046Z,100369.44
2022-11-28T15:21:17.180Z,100370.53
2022-11-28T15:23:46.966Z,100378.31
2022-11-28T15:26:28.463Z,100371.97
2022-11-28T15:29:24.522Z,100372.22
2022-11-28T15:31:54.805Z,100366.56
2022-11-28T15:34:33.586Z,100369.44
2022-11-28T15:37:02.366Z,100385.25
2022-11-28T15:39:39.936Z,100385.13
2022-11-28T15:42:09.591Z,100391.38
2022-11-28T15:44:37.778Z,100390.66
2022-11-28T15:47:05.432Z,100394.84
2022-11-28T15:49:34.273Z,100401.47
2022-11-28T15:52:03.364Z,100399.34
2022-11-28T15:54:38.219Z,100393.84
2022-11-28T15:57:06.564Z,100392.63
2022-11-28T15:59:34.113Z,100397.91
2022-11-28T16:02:04.627Z,100395.91
2022-11-28T16:04:32.268Z,100402.56
2022-11-28T16:06:59.754Z,100405.72
2022-11-28T16:09:33.894Z,100408.78
2022-11-28T16:12:02.344Z,100393.56
2022-11-28T16:14:36.368Z,100401.69
2022-11-28T16:17:09.493Z,100398.06
2022-11-28T16:19:37.297Z,100399.00
2022-11-28T16:22:06.499Z,100396.56
2022-11-28T16:24:43.293Z,100404.69
2022-11-28T16:27:41.526Z,100403.84
2022-11-28T16:30:29.816Z,100399.16
2022-11-28T16:32:57.729Z,100388.38
2022-11-28T16:35:28.955Z,100398.94
2022-11-28T16:38:06.112Z,100404.38
2022-11-28T16:40:33.451Z,100397.94
2022-11-28T16:43:02.984Z,100385.41
2022-11-28T16:45:33.389Z,100399.81
2022-11-28T16:48:09.487Z,100392.72
2022-11-28T16:50:36.924Z,100387.09
2022-11-28T16:53:04.758Z,100393.50
2022-11-28T16:55:32.371Z,100401.12
2022-11-28T16:58:21.755Z,100396.53
2022-11-28T17:00:58.193Z,100405.47
2022-11-28T17:03:46.030Z,100403.81
2022-11-28T17:06:19.276Z,100398.16
2022-11-28T17:08:46.661Z,100404.06
2022-11-28T17:11:14.600Z,100399.59
2022-11-28T17:13:42.023Z,100402.94
2022-11-28T17:16:27.804Z,100399.44
2022-11-28T17:18:55.511Z,100408.09
2022-11-28T17:21:43.224Z,100404.13
2022-11-28T17:24:27.801Z,100404.31
2022-11-28T17:26:55.189Z,100404.84
2022-11-28T17:29:22.882Z,100407.41
2022-11-28T17:31:50.289Z,100410.25
2022-11-28T17:34:19.597Z,100410.22
2022-11-28T17:36:47.918Z,100419.75
2022-11-28T17:39:15.541Z,100424.03
2022-11-28T17:41:43.116Z,100420.88
2022-11-28T17:44:21.192Z,100411.94
2022-11-28T17:46:52.237Z,100417.72
2022-11-28T17:49:19.907Z,100419.53
2022-11-28T17:51:49.201Z,100422.34
2022-11-28T17:54:17.903Z,100418.62
2022-11-28T17:56:47.310Z,100419.31
2022-11-28T17:59:15.570Z,100420.41
2022-11-28T18:01:44.140Z,100417.63
2022-11-28T18:04:11.888Z,100416.56
2022-11-28T18:06:39.383Z,100418.50
2022-11-28T18:09:11.587Z,100413.28
2022-11-28T18:11:40.655Z,100418.09
2022-11-28T18:14:09.131Z,100423.03
2022-11-28T18:16:36.747Z,100422.53
2022-11-28T18:19:04.380Z,100418.62
2022-11-28T18:21:32.390Z,100425.88
2022-11-28T18:23:59.803Z,100416.72
2022-11-28T18:26:27.470Z,100424.94
2022-11-28T18:28:54.856Z,100423.09
2022-11-28T18:31:24.487Z,100417.13
2022-11-28T18:33:55.121Z,100413.13
2022-11-28T18:36:25.974Z,100423.34
2022-11-28T18:39:01.972Z,100422.06
2022-11-28T18:41:29.368Z,100421.28
2022-11-28T18:43:58.761Z,100423.75
2022-11-28T18:46:26.723Z,100421.56
2022-11-28T18:48:54.135Z,100431.66
2022-11-28T18:51:23.761Z,100428.28
2022-11-28T18:53:51.463Z,100430.91
2022-11-28T18:56:19.214Z,100437.03
2022-11-28T18:58:53.062Z,100430.84
2022-11-28T19:01:25.523Z,100420.53
2022-11-28T19:03:56.047Z,100423.97
2022-11-28T19:06:23.771Z,100420.06
2022-11-28T19:08:58.744Z,100423.37
2022-11-28T19:11:28.541Z,100425.94
2022-11-28T19:13:56.639Z,100429.41
2022-11-28T19:16:25.988Z,100414.13
2022-11-28T19:18:53.707Z,100420.03
2022-11-28T19:21:22.836Z,100418.34
2022-11-28T19:23:50.243Z,100416.22
2022-11-28T19:26:19.690Z,100414.50
2022-11-28T19:28:48.103Z,100427.44
2022-11-28T19:31:17.155Z,100425.69
2022-11-28T19:33:44.779Z,100420.53
2022-11-28T19:36:13.236Z,100422.44
2022-11-28T19:38:41.113Z,100422.81
2022-11-28T19:41:13.677Z,100424.31
2022-11-28T19:43:41.427Z,100430.63
2022-11-28T19:46:09.510Z,100431.28
2022-11-28T19:48:37.277Z,100421.84
2022-11-28T19:51:04.979Z,100426.63
2022-11-28T19:53:33.901Z,100429.22
2022-11-28T19:56:05.552Z,100423.44
2022-11-28T19:58:36.583Z,100433.19
2022-11-28T20:01:08.663Z,100423.50
2022-11-28T20:03:36.875Z,100424.47
2022-11-28T20:06:11.778Z,100423.41
2022-11-28T20:08:39.577Z,100426.84
2022-11-28T20:11:08.754Z,100427.59
2022-11-28T20:13:36.368Z,100430.84
2022-11-28T20:16:05.010Z,100425.28
2022-11-28T20:18:32.675Z,100421.62
2022-11-28T20:21:12.919Z,100412.44
2022-11-28T20:23:41.652Z,100422.19
2022-11-28T20:26:09.290Z,100431.91
2022-11-28T20:28:37.863Z,100423.22
2022-11-28T20:31:06.019Z,100421.97
2022-11-28T20:33:33.663Z,100418.34
2022-11-28T20:36:08.204Z,100420.47
2022-11-28T20:38:35.902Z,100419.56
2022-11-28T20:41:04.704Z,100427.81
2022-11-28T20:43:32.352Z,100438.97
2022-11-28T20:46:16.447Z,100425.31
2022-11-28T20:48:43.957Z,100434.72
2022-11-28T20:51:13.140Z,100424.19
2022-11-28T20:53:41.389Z,100428.50
2022-11-28T20:56:11.506Z,100420.88
2022-11-28T20:58:39.089Z,100420.66
2022-11-28T21:01:06.545Z,100430.37
2022-11-28T21:03:34.212Z,100433.56
2022-11-28T21:06:01.913Z,100420.34
2022-11-28T21:08:33.754Z,100421.94
2022-11-28T21:11:05.922Z,100425.44
2022-11-28T21:13:33.598Z,100435.50
2022-11-28T21:16:08.886Z,100433.84
2022-11-28T21:18:36.899Z,100432.81
2022-11-28T21:21:11.839Z,100438.72
2022-11-28T21:23:39.426Z,100438.09
2022-11-28T21:26:09.245Z,100435.75
2022-11-28T21:28:36.946Z,100430.81
2022-11-28T21:31:09.354Z,100426.09
2022-11-28T21:33:36.712Z,100445.78
2022-11-28T21:36:04.610Z,100447.22
2022-11-28T21:38:32.287Z,100434.06
2022-11-28T21:40:59.616Z,100439.47
2022-11-28T21:43:30.083Z,100435.94
2022-11-28T21:46:04.621Z,100437.50
2022-11-28T21:48:32.146Z,100427.22
2022-11-28T21:50:59.904Z,100432.75
2022-11-28T21:53:28.855Z,100432.63
2022-11-28T21:55:56.224Z,100429.22
2022-11-28T21:58:26.827Z,100428.78
2022-11-28T22:01:01.876Z,100432.12
2022-11-28T22:03:29.733Z,100431.09
2022-11-28T22:06:01.809Z,100422.66
2022-11-28T22:08:29.678Z,100423.31
2022-11-28T22:11:03.619Z,100428.28
2022-11-28T22:13:31.393Z,100425.81
2022-11-28T22:15:59.002Z,100426.75
2022-11-28T22:18:28.832Z,100433.41
2022-11-28T22:21:06.483Z,100422.91
2022-11-28T22:23:37.651Z,100427.16
2022-11-28T22:26:05.620Z,100432.00
2022-11-28T22:28:33.894Z,100428.09
2022-11-28T22:31:08.776Z,100420.66
2022-11-28T22:33:36.278Z,100426.63
2022-11-28T22:36:08.618Z,100422.03
2022-11-28T22:38:35.944Z,100423.47
2022-11-28T22:41:10.908Z,100419.56
2022-11-28T22:43:38.457Z,100407.69
2022-11-28T22:46:06.376Z,100422.88
2022-11-28T22:48:34.511Z,100426.84
2022-11-28T22:51:11.876Z,100424.94
2022-11-28T22:53:39.484Z,100429.97
2022-11-28T22:56:11.281Z,100425.16
2022-11-28T22:58:42.713Z,100428.09
2022-11-28T23:01:17.287Z,100423.66
2022-11-28T23:03:45.644Z,100428.44
2022-11-28T23:06:15.065Z,100418.16
2022-11-28T23:08:42.879Z,100417.72
2022-11-28T23:11:15.459Z,100427.22
2022-11-28T23:13:43.043Z,100420.84
2022-11-28T23:16:24.650Z,100418.03
2022-11-28T23:18:54.315Z,100429.38
2022-11-28T23:21:22.781Z,100430.88
2022-11-28T23:23:50.204Z,100435.69
2022-11-28T23:26:19.413Z,100424.00
2022-11-28T23:28:47.800Z,100436.03
2022-11-28T23:31:25.724Z,100429.25
2022-11-28T23:33:54.416Z,100429.16
2022-11-28T23:36:23.681Z,100426.00
2022-11-28T23:38:52.576Z,100430.59
2022-11-28T23:41:20.178Z,100432.97
2022-11-28T23:43:47.525Z,100434.19
2022-11-28T23:46:15.156Z,100420.41
2022-11-28T23:48:43.724Z,100421.59
2022-11-28T23:51:12.836Z,100408.50
2022-11-28T23:53:40.330Z,100414.91
2022-11-28T23:56:24.383Z,100415.97
2022-11-28T23:58:52.036Z,100414.38
